Time;durP1;ratioP1;P1;durP2;ratioP2;P2;SDS_P1;SDS_P2;PMS_P1;PMS_P2;Temp;Humidity;BMP_temperature;BMP_pressure;BME280_temperature;BME280_humidity;BME280_pressure;Samples;Min_cycle;Max_cycle;Signal;HPM_P1;HPM_P2
2024/02/06 00:00:41;;;;;;;19.35;9.18;;;;;7.90;98936.00;;;;5050689;28;20067;-64
2024/02/06 00:03:08;;;;;;;17.55;8.70;;;;;7.90;98932.00;;;;5052155;28;20102;-64
2024/02/06 00:05:34;;;;;;;17.33;9.02;;;;;7.80;98927.00;;;;5051426;28;20416;-64
2024/02/06 00:08:01;;;;;;;18.05;8.63;;;;;7.80;98926.00;;;;5051841;28;20048;-64
2024/02/06 00:10:28;;;;;;;15.45;7.63;;;;;7.70;98928.00;;;;5051726;28;20055;-64
2024/02/06 00:12:54;;;;;;;17.73;9.05;;;;;7.70;98927.00;;;;5051795;28;20048;-64
2024/02/06 00:15:21;;;;;;;20.95;9.20;;;;;7.70;98925.00;;;;5051081;28;20045;-63
2024/02/06 00:17:47;;;;;;;18.08;7.78;;;;;7.60;98908.00;;;;5051697;28;20045;-63
2024/02/06 00:20:19;;;;;;;14.57;8.05;;;;;7.60;98926.00;;;;5051714;28;20052;-64
2024/02/06 00:22:46;;;;;;;19.40;7.45;;;;;7.60;98924.00;;;;5050597;28;20077;-64
2024/02/06 00:25:13;;;;;;;17.27;7.75;;;;;7.60;98920.00;;;;5051134;28;20126;-64
2024/02/06 00:27:39;;;;;;;14.60;7.72;;;;;7.60;98920.00;;;;5051335;28;20045;-63
2024/02/06 00:30:07;;;;;;;25.42;7.93;;;;;7.60;98926.00;;;;5050202;28;20578;-66
2024/02/06 00:32:33;;;;;;;23.27;8.95;;;;;7.70;98915.00;;;;5050388;28;20103;-64
2024/02/06 00:35:00;;;;;;;17.80;8.13;;;;;7.60;98918.00;;;;5050845;28;20052;-64
2024/02/06 00:37:30;;;;;;;13.80;8.20;;;;;7.60;98925.00;;;;5051448;28;20051;-64
2024/02/06 00:39:57;;;;;;;18.23;8.88;;;;;7.60;98921.00;;;;5051366;28;20073;-64
2024/02/06 00:42:24;;;;;;;17.17;8.07;;;;;7.60;98924.00;;;;5051377;28;20049;-63
2024/02/06 00:44:50;;;;;;;18.95;8.38;;;;;7.50;98922.00;;;;5050743;28;20072;-64
2024/02/06 00:47:17;;;;;;;20.75;8.02;;;;;7.50;98921.00;;;;5051346;28;20051;-64
2024/02/06 00:49:44;;;;;;;16.92;8.30;;;;;7.50;98909.00;;;;5050092;28;20144;-64
2024/02/06 00:52:11;;;;;;;20.10;8.65;;;;;7.50;98925.00;;;;5051278;28;20061;-64
2024/02/06 00:54:37;;;;;;;19.42;8.68;;;;;7.60;98915.00;;;;5050631;28;20045;-64
2024/02/06 00:57:04;;;;;;;21.60;8.55;;;;;7.60;98913.00;;;;5051615;28;20375;-64
2024/02/06 00:59:31;;;;;;;15.73;8.02;;;;;7.60;98926.00;;;;5053023;28;20498;-64
2024/02/06 01:02:00;;;;;;;18.27;8.48;;;;;7.60;98910.00;;;;5054830;28;20079;-64
2024/02/06 01:04:27;;;;;;;23.55;9.23;;;;;7.60;98904.00;;;;5054298;28;20037;-64
2024/02/06 01:06:54;;;;;;;19.70;9.75;;;;;7.60;98912.00;;;;5054961;28;20045;-64
2024/02/06 01:09:20;;;;;;;21.02;8.35;;;;;7.60;98910.00;;;;5054798;28;20041;-64
2024/02/06 01:11:47;;;;;;;20.40;8.25;;;;;7.50;98912.00;;;;5054603;28;20136;-61
2024/02/06 01:14:13;;;;;;;22.45;8.82;;;;;7.50;98909.00;;;;5054015;28;20044;-64
2024/02/06 01:16:40;;;;;;;24.08;9.20;;;;;7.50;98904.00;;;;5055157;28;20067;-64
2024/02/06 01:19:07;;;;;;;19.90;9.65;;;;;7.50;98896.00;;;;5036801;28;20065;-62
2024/02/06 01:21:34;;;;;;;21.73;9.98;;;;;7.50;98906.00;;;;5054588;28;20493;-63
2024/02/06 01:24:00;;;;;;;30.05;10.00;;;;;7.50;98896.00;;;;5054005;28;20041;-63
2024/02/06 01:26:27;;;;;;;26.90;11.30;;;;;7.50;98898.00;;;;5054406;28;20067;-62
2024/02/06 01:28:54;;;;;;;18.85;9.15;;;;;7.50;98900.00;;;;5053295;28;20041;-64
2024/02/06 01:31:20;;;;;;;24.98;10.13;;;;;7.60;98899.00;;;;5054513;28;20049;-63
2024/02/06 01:33:47;;;;;;;18.85;8.93;;;;;7.60;98901.00;;;;5054063;28;20045;-64
2024/02/06 01:36:13;;;;;;;20.67;8.35;;;;;7.60;98901.00;;;;5055571;28;20044;-63
2024/02/06 01:38:40;;;;;;;16.10;7.72;;;;;7.60;98900.00;;;;5054548;28;20398;-64
2024/02/06 01:41:07;;;;;;;19.38;7.45;;;;;7.60;98892.00;;;;5055307;28;20128;-62
2024/02/06 01:43:33;;;;;;;17.30;7.38;;;;;7.60;98893.00;;;;5054246;28;20123;-62
2024/02/06 01:46:00;;;;;;;16.85;7.53;;;;;7.70;98896.00;;;;5055255;28;20048;-63
2024/02/06 01:48:28;;;;;;;14.23;6.80;;;;;7.70;98888.00;;;;5037458;28;20057;-62
2024/02/06 01:50:55;;;;;;;14.60;6.55;;;;;7.70;98891.00;;;;5054688;28;20052;-63
2024/02/06 01:53:23;;;;;;;12.48;5.93;;;;;7.80;98886.00;;;;5056252;28;20123;-63
2024/02/06 01:55:50;;;;;;;15.23;5.97;;;;;7.80;98891.00;;;;5056694;28;20037;-63
2024/02/06 01:58:17;;;;;;;12.85;6.45;;;;;7.90;98889.00;;;;5055994;28;20053;-62
2024/02/06 02:00:44;;;;;;;13.50;5.43;;;;;7.90;98884.00;;;;5053982;28;20413;-64
2024/02/06 02:03:11;;;;;;;10.70;5.47;;;;;7.80;98895.00;;;;5052859;28;20095;-63
2024/02/06 02:05:41;;;;;;;13.77;5.55;;;;;7.90;98882.00;;;;5053005;28;20061;-63
2024/02/06 02:08:08;;;;;;;13.93;5.95;;;;;7.90;98883.00;;;;5052596;28;20047;-63
2024/02/06 02:10:34;;;;;;;10.70;5.75;;;;;8.00;98880.00;;;;5054109;28;20041;-63
2024/02/06 02:13:02;;;;;;;15.00;6.07;;;;;7.90;98879.00;;;;5054389;28;20486;-63
2024/02/06 02:15:29;;;;;;;14.18;5.90;;;;;7.90;98875.00;;;;5053546;28;20084;-63
2024/02/06 02:17:56;;;;;;;15.05;6.13;;;;;8.00;98875.00;;;;5053783;28;20478;-63
2024/02/06 02:20:22;;;;;;;16.85;6.07;;;;;8.00;98858.00;;;;5053622;28;20041;-63
2024/02/06 02:22:49;;;;;;;14.68;6.72;;;;;8.00;98861.00;;;;5053536;28;20044;-62
2024/02/06 02:25:15;;;;;;;15.48;7.45;;;;;8.10;98861.00;;;;5053092;28;20041;-64
2024/02/06 02:27:43;;;;;;;19.45;8.60;;;;;7.90;98850.00;;;;5052162;28;20045;-64
2024/02/06 02:30:11;;;;;;;18.50;7.88;;;;;7.80;98854.00;;;;5053483;28;20129;-63
2024/02/06 02:32:39;;;;;;;17.58;7.78;;;;;7.80;98852.00;;;;5053795;28;20047;-62
2024/02/06 02:35:06;;;;;;;19.55;8.30;;;;;7.80;98851.00;;;;5053236;28;20041;-64
2024/02/06 02:37:33;;;;;;;16.20;8.00;;;;;7.70;98853.00;;;;5053228;28;20065;-64
2024/02/06 02:39:59;;;;;;;20.33;8.15;;;;;7.60;98847.00;;;;5053245;28;20102;-63
2024/02/06 02:42:26;;;;;;;21.60;8.48;;;;;7.60;98837.00;;;;5053048;28;20571;-62
2024/02/06 02:44:52;;;;;;;16.95;8.40;;;;;7.70;98838.00;;;;5052456;28;20120;-63
2024/02/06 02:47:19;;;;;;;15.68;8.05;;;;;7.60;98840.00;;;;5053681;28;20128;-63
2024/02/06 02:49:46;;;;;;;20.23;8.52;;;;;7.60;98840.00;;;;5052840;28;20048;-63
2024/02/06 02:52:12;;;;;;;22.10;9.02;;;;;7.60;98833.00;;;;5051465;28;20045;-63
2024/02/06 02:54:39;;;;;;;18.05;8.43;;;;;7.60;98832.00;;;;5052326;28;20464;-63
2024/02/06 02:57:06;;;;;;;23.92;9.10;;;;;7.70;98829.00;;;;5053200;28;20079;-64
2024/02/06 02:59:33;;;;;;;15.68;7.40;;;;;7.70;98831.00;;;;5052771;28;20036;-64
2024/02/06 03:01:59;;;;;;;19.98;8.85;;;;;7.60;98833.00;;;;5052596;28;20055;-64
2024/02/06 03:04:26;;;;;;;23.83;8.25;;;;;7.70;98822.00;;;;5052041;28;20080;-63
2024/02/06 03:06:53;;;;;;;18.30;7.70;;;;;7.70;98832.00;;;;5052571;28;20051;-64
2024/02/06 03:09:20;;;;;;;17.48;7.25;;;;;7.70;98826.00;;;;5052721;28;20040;-64
2024/02/06 03:11:47;;;;;;;16.60;7.80;;;;;7.70;98820.00;;;;5052438;28;20556;-63
2024/02/06 03:14:14;;;;;;;16.15;7.93;;;;;7.70;98824.00;;;;5051813;28;20486;-63
2024/02/06 03:16:40;;;;;;;18.55;8.05;;;;;7.70;98826.00;;;;5052397;28;20037;-63
2024/02/06 03:19:07;;;;;;;17.55;7.90;;;;;7.70;98826.00;;;;5052365;28;20090;-63
2024/02/06 03:21:34;;;;;;;16.17;7.25;;;;;7.80;98821.00;;;;5051567;28;20047;-64
2024/02/06 03:24:01;;;;;;;15.23;7.20;;;;;7.80;98821.00;;;;5051671;28;20045;-63
2024/02/06 03:26:27;;;;;;;15.23;7.55;;;;;7.80;98815.00;;;;5052160;28;20080;-63
2024/02/06 03:28:54;;;;;;;15.52;7.60;;;;;7.80;98816.00;;;;5052159;28;20049;-63
2024/02/06 03:31:20;;;;;;;15.30;7.38;;;;;7.90;98817.00;;;;5052153;28;20060;-64
2024/02/06 03:33:47;;;;;;;19.73;8.35;;;;;7.90;98823.00;;;;5051693;28;20044;-64
2024/02/06 03:36:14;;;;;;;12.25;7.65;;;;;7.90;98815.00;;;;5052364;28;20045;-64
2024/02/06 03:38:40;;;;;;;16.95;7.88;;;;;7.80;98820.00;;;;5052251;28;20045;-63
2024/02/06 03:41:07;;;;;;;14.55;7.90;;;;;7.80;98809.00;;;;5051964;28;20131;-65
2024/02/06 03:43:33;;;;;;;15.27;8.02;;;;;7.80;98814.00;;;;5051373;28;20041;-63
2024/02/06 03:46:00;;;;;;;13.95;7.60;;;;;7.80;98813.00;;;;5050719;28;20508;-64
2024/02/06 03:48:27;;;;;;;15.13;7.65;;;;;7.80;98818.00;;;;5050842;28;20048;-64
2024/02/06 03:50:53;;;;;;;21.15;7.43;;;;;7.80;98826.00;;;;5052766;28;20048;-63
2024/02/06 03:53:20;;;;;;;13.32;7.78;;;;;7.80;98825.00;;;;5052641;28;20041;-63
2024/02/06 03:55:47;;;;;;;14.90;7.53;;;;;7.80;98821.00;;;;5050338;28;20049;-64
2024/02/06 03:58:14;;;;;;;15.15;7.50;;;;;7.80;98818.00;;;;5051966;28;20059;-64
2024/02/06 04:00:41;;;;;;;11.30;6.78;;;;;7.80;98826.00;;;;5051855;28;20106;-64
2024/02/06 04:03:08;;;;;;;12.38;6.68;;;;;7.80;98817.00;;;;5050478;28;20109;-63
2024/02/06 04:05:34;;;;;;;16.02;7.28;;;;;7.70;98820.00;;;;5051193;28;20490;-63
2024/02/06 04:08:01;;;;;;;16.63;6.70;;;;;7.60;98813.00;;;;5051866;28;20584;-63
2024/02/06 04:10:28;;;;;;;18.30;7.10;;;;;7.60;98809.00;;;;5051819;28;20137;-63
2024/02/06 04:12:54;;;;;;;12.70;6.80;;;;;7.70;98818.00;;;;5051614;28;20041;-64
2024/02/06 04:15:21;;;;;;;20.02;8.07;;;;;7.70;98821.00;;;;5051017;28;20045;-64
2024/02/06 04:17:48;;;;;;;18.92;7.25;;;;;7.70;98805.00;;;;5050553;28;20079;-64
2024/02/06 04:20:15;;;;;;;13.13;6.95;;;;;7.80;98812.00;;;;5051688;28;20049;-63
2024/02/06 04:22:42;;;;;;;17.10;6.60;;;;;7.70;98808.00;;;;5050844;28;20110;-64
2024/02/06 04:25:09;;;;;;;18.40;7.32;;;;;7.70;98805.00;;;;5051054;28;20097;-63
2024/02/06 04:27:36;;;;;;;9.52;6.53;;;;;7.70;98802.00;;;;5051606;28;20049;-63
2024/02/06 04:30:04;;;;;;;14.35;7.32;;;;;7.70;98817.00;;;;5051452;28;20522;-64
2024/02/06 04:32:30;;;;;;;11.93;6.50;;;;;7.80;98811.00;;;;5051942;28;20045;-63
2024/02/06 04:34:57;;;;;;;13.27;6.80;;;;;7.80;98815.00;;;;5054625;28;20072;-65
2024/02/06 04:37:24;;;;;;;13.18;6.20;;;;;7.70;98817.00;;;;5037666;28;20071;-65
2024/02/06 04:39:50;;;;;;;14.43;7.15;;;;;7.60;98805.00;;;;5055416;28;20041;-65
2024/02/06 04:42:17;;;;;;;15.48;6.93;;;;;7.70;98809.00;;;;5055204;28;20506;-65
2024/02/06 04:44:43;;;;;;;14.27;6.30;;;;;7.60;98801.00;;;;5054616;28;20044;-65
2024/02/06 04:47:10;;;;;;;15.10;6.30;;;;;7.60;98800.00;;;;5055187;28;20047;-65
2024/02/06 04:49:37;;;;;;;10.38;5.75;;;;;7.60;98800.00;;;;5055141;28;20073;-64
2024/02/06 04:52:04;;;;;;;11.90;6.35;;;;;7.50;98784.00;;;;5055151;28;20049;-65
2024/02/06 04:54:31;;;;;;;9.57;6.05;;;;;7.50;98798.00;;;;5054442;28;20041;-65
2024/02/06 04:56:57;;;;;;;11.55;5.95;;;;;7.60;98780.00;;;;5054963;28;20037;-65
2024/02/06 04:59:24;;;;;;;12.93;6.07;;;;;7.60;98782.00;;;;5054948;28;20055;-65
2024/02/06 05:01:50;;;;;;;14.15;6.55;;;;;7.60;98783.00;;;;5053747;28;20403;-65
2024/02/06 05:04:17;;;;;;;9.68;5.53;;;;;7.60;98777.00;;;;5054198;28;20099;-65
2024/02/06 05:06:45;;;;;;;11.05;5.90;;;;;7.60;98770.00;;;;5053590;28;20055;-65
2024/02/06 05:09:12;;;;;;;13.95;6.05;;;;;7.60;98773.00;;;;5053722;28;20045;-65
2024/02/06 05:11:39;;;;;;;13.05;5.97;;;;;7.60;98768.00;;;;5054570;28;20045;-65
2024/02/06 05:14:06;;;;;;;12.68;6.32;;;;;7.60;98769.00;;;;5053729;28;20106;-65
2024/02/06 05:16:33;;;;;;;10.40;5.63;;;;;7.60;98763.00;;;;5054638;28;20572;-65
2024/02/06 05:18:59;;;;;;;12.00;6.20;;;;;7.50;98760.00;;;;5054546;28;20098;-66
2024/02/06 05:21:26;;;;;;;9.63;5.78;;;;;7.50;98757.00;;;;5053365;28;20501;-65
2024/02/06 05:23:53;;;;;;;11.75;5.57;;;;;7.50;98768.00;;;;5052790;28;20047;-65
2024/02/06 05:26:20;;;;;;;11.45;5.80;;;;;7.50;98763.00;;;;5054293;28;20136;-65
2024/02/06 05:28:47;;;;;;;12.75;6.00;;;;;7.50;98762.00;;;;5054352;28;20045;-65
2024/02/06 05:31:14;;;;;;;9.57;5.93;;;;;7.60;98766.00;;;;5054502;28;20587;-65
2024/02/06 05:33:40;;;;;;;10.63;5.88;;;;;7.50;98765.00;;;;5053751;28;20053;-65
2024/02/06 05:36:07;;;;;;;11.95;6.53;;;;;7.50;98752.00;;;;5054165;28;20040;-64
2024/02/06 05:38:34;;;;;;;11.23;6.38;;;;;7.50;98758.00;;;;5054440;28;20045;-65
2024/02/06 05:41:00;;;;;;;15.90;7.35;;;;;7.50;98754.00;;;;5054069;28;20041;-65
2024/02/06 05:43:27;;;;;;;13.98;8.10;;;;;7.50;98756.00;;;;5053373;28;20047;-64
2024/02/06 05:45:55;;;;;;;12.55;6.70;;;;;7.50;98765.00;;;;5053666;28;20159;-64
2024/02/06 05:48:22;;;;;;;15.02;7.18;;;;;7.50;98756.00;;;;5053007;28;20083;-65
2024/02/06 05:50:49;;;;;;;11.60;6.93;;;;;7.40;98763.00;;;;5052760;28;20128;-63
2024/02/06 05:53:15;;;;;;;10.57;7.03;;;;;7.40;98761.00;;;;5036345;28;20502;-63
2024/02/06 05:55:42;;;;;;;13.48;7.28;;;;;7.50;98759.00;;;;5053333;28;20041;-63
2024/02/06 05:58:09;;;;;;;12.88;7.00;;;;;7.50;98765.00;;;;5054223;28;20045;-63
2024/02/06 06:00:35;;;;;;;12.57;6.88;;;;;7.50;98762.00;;;;5053884;28;20437;-65
2024/02/06 06:03:02;;;;;;;15.00;7.55;;;;;7.50;98763.00;;;;5052667;28;20087;-65
2024/02/06 06:05:28;;;;;;;14.13;7.82;;;;;7.50;98759.00;;;;5053292;28;20045;-64
2024/02/06 06:07:55;;;;;;;13.55;7.72;;;;;7.50;98762.00;;;;5052465;28;20098;-64
2024/02/06 06:10:22;;;;;;;13.15;7.38;;;;;7.60;98739.00;;;;5053497;28;20052;-64
2024/02/06 06:12:48;;;;;;;12.52;7.10;;;;;7.60;98737.00;;;;5053491;28;20533;-64
2024/02/06 06:15:15;;;;;;;12.52;7.03;;;;;7.60;98739.00;;;;5052957;28;20102;-64
2024/02/06 06:17:42;;;;;;;13.05;6.95;;;;;7.50;98734.00;;;;5053621;28;20552;-65
2024/02/06 06:20:09;;;;;;;12.85;7.30;;;;;7.50;98730.00;;;;5052339;28;20040;-64
2024/02/06 06:22:36;;;;;;;12.90;7.65;;;;;7.50;98726.00;;;;5053409;28;20506;-64
2024/02/06 06:25:03;;;;;;;17.02;7.80;;;;;7.60;98726.00;;;;5052687;28;20051;-64
2024/02/06 06:27:30;;;;;;;13.40;7.68;;;;;7.60;98722.00;;;;5053146;28;20132;-66
2024/02/06 06:29:56;;;;;;;11.40;7.00;;;;;7.50;98723.00;;;;5053097;28;20075;-64
2024/02/06 06:32:23;;;;;;;11.55;6.43;;;;;7.60;98724.00;;;;5035539;28;20051;-64
2024/02/06 06:34:50;;;;;;;10.18;6.50;;;;;7.60;98715.00;;;;5052622;28;20048;-64
2024/02/06 06:37:18;;;;;;;13.27;6.43;;;;;7.60;98717.00;;;;5053036;28;20053;-63
2024/02/06 06:39:47;;;;;;;16.77;7.25;;;;;7.60;98714.00;;;;5053248;28;20398;-66
2024/02/06 06:42:15;;;;;;;13.13;6.70;;;;;7.60;98723.00;;;;5052941;28;20059;-66
2024/02/06 06:44:41;;;;;;;11.55;7.78;;;;;7.60;98731.00;;;;5052339;28;20127;-65
2024/02/06 06:47:08;;;;;;;12.00;7.28;;;;;7.60;98734.00;;;;5052829;28;20049;-65
2024/02/06 06:49:34;;;;;;;11.90;7.20;;;;;7.60;98723.00;;;;5052932;28;20084;-65
2024/02/06 06:52:01;;;;;;;14.57;6.97;;;;;7.60;98726.00;;;;5052958;28;20055;-65
2024/02/06 06:54:28;;;;;;;13.32;7.20;;;;;7.60;98729.00;;;;5052291;28;20049;-65
2024/02/06 06:56:54;;;;;;;13.40;7.90;;;;;7.70;98728.00;;;;5051074;28;20067;-65
2024/02/06 06:59:21;;;;;;;11.82;6.78;;;;;7.70;98723.00;;;;5053059;28;20059;-63
2024/02/06 07:01:47;;;;;;;14.00;7.20;;;;;7.70;98725.00;;;;5052658;28;20055;-65
2024/02/06 07:04:14;;;;;;;15.23;7.10;;;;;7.70;98725.00;;;;5051941;28;20099;-65
2024/02/06 07:06:41;;;;;;;10.05;6.80;;;;;7.70;98727.00;;;;5052228;28;20138;-65
2024/02/06 07:09:09;;;;;;;11.55;7.20;;;;;7.70;98722.00;;;;5052645;28;20461;-65
2024/02/06 07:11:35;;;;;;;12.65;7.70;;;;;7.80;98719.00;;;;5052439;28;20116;-65
2024/02/06 07:14:02;;;;;;;14.05;7.63;;;;;7.80;98735.00;;;;5051940;28;20091;-65
2024/02/06 07:16:28;;;;;;;12.40;6.80;;;;;7.80;98735.00;;;;5052413;28;20083;-65
2024/02/06 07:18:55;;;;;;;9.52;7.35;;;;;7.80;98733.00;;;;5051315;28;20045;-64
2024/02/06 07:21:22;;;;;;;13.00;7.47;;;;;7.70;98746.00;;;;5052464;28;20099;-65
2024/02/06 07:23:49;;;;;;;16.83;7.55;;;;;7.70;98743.00;;;;5051848;28;20475;-64
2024/02/06 07:26:15;;;;;;;10.60;7.30;;;;;7.80;98743.00;;;;5052204;28;20128;-64
2024/02/06 07:28:42;;;;;;;11.43;7.97;;;;;7.80;98730.00;;;;5052226;28;20041;-64
2024/02/06 07:31:09;;;;;;;13.05;7.78;;;;;7.70;98737.00;;;;5052207;28;20049;-64
2024/02/06 07:33:36;;;;;;;12.70;8.80;;;;;7.70;98737.00;;;;5051672;28;20045;-65
2024/02/06 07:36:03;;;;;;;15.32;8.45;;;;;7.60;98733.00;;;;5050943;28;20045;-64
2024/02/06 07:38:30;;;;;;;12.63;7.63;;;;;7.60;98743.00;;;;5052087;28;20055;-64
2024/02/06 07:40:58;;;;;;;17.67;7.60;;;;;7.60;98753.00;;;;5050767;28;20063;-65
2024/02/06 07:43:26;;;;;;;14.27;7.90;;;;;7.60;98749.00;;;;5050373;28;20127;-63
2024/02/06 07:45:52;;;;;;;12.43;8.10;;;;;7.60;98747.00;;;;5051922;28;20098;-63
2024/02/06 07:48:19;;;;;;;15.15;8.27;;;;;7.70;98747.00;;;;5052438;28;20049;-63
2024/02/06 07:50:47;;;;;;;12.68;7.07;;;;;7.70;98738.00;;;;5052216;28;20041;-64
2024/02/06 07:53:16;;;;;;;12.27;7.05;;;;;7.60;98752.00;;;;5034562;28;20045;-64
2024/02/06 07:55:43;;;;;;;10.82;6.38;;;;;7.60;98741.00;;;;5051483;28;20048;-63
2024/02/06 07:58:10;;;;;;;13.52;7.13;;;;;7.60;98737.00;;;;5052044;28;20045;-64
2024/02/06 08:00:36;;;;;;;9.25;6.30;;;;;7.60;98730.00;;;;5051869;28;20056;-64
2024/02/06 08:03:03;;;;;;;11.05;6.93;;;;;7.60;98729.00;;;;5052039;28;20482;-61
2024/02/06 08:05:30;;;;;;;7.35;5.97;;;;;7.80;98739.00;;;;5051515;28;20041;-61
2024/02/06 08:07:57;;;;;;;11.10;6.90;;;;;7.80;98741.00;;;;5052912;28;20124;-61
2024/02/06 08:10:24;;;;;;;9.55;6.55;;;;;7.80;98737.00;;;;5055837;28;20467;-62
2024/02/06 08:12:52;;;;;;;13.65;6.75;;;;;7.80;98745.00;;;;5055894;28;20076;-61
2024/02/06 08:15:19;;;;;;;13.70;7.35;;;;;7.90;98743.00;;;;5053997;28;20119;-61
2024/02/06 08:17:47;;;;;;;13.68;6.13;;;;;7.80;98735.00;;;;5055723;28;20504;-61
2024/02/06 08:20:16;;;;;;;9.48;6.32;;;;;7.80;98733.00;;;;5055824;28;20411;-61
2024/02/06 08:22:43;;;;;;;11.02;6.95;;;;;7.80;98738.00;;;;5055589;28;20048;-61
2024/02/06 08:25:10;;;;;;;9.15;6.13;;;;;7.80;98730.00;;;;5055038;28;20056;-61
2024/02/06 08:27:37;;;;;;;9.95;5.78;;;;;7.70;98723.00;;;;5055443;28;20046;-61
2024/02/06 08:30:05;;;;;;;8.20;5.90;;;;;7.70;98737.00;;;;5055496;28;20041;-61
2024/02/06 08:32:32;;;;;;;13.48;6.15;;;;;7.80;98735.00;;;;5054465;28;20072;-61
2024/02/06 08:34:59;;;;;;;11.25;6.63;;;;;7.80;98736.00;;;;5054776;28;20049;-62
2024/02/06 08:37:26;;;;;;;8.27;5.70;;;;;7.80;98739.00;;;;5055565;28;20482;-62
2024/02/06 08:39:53;;;;;;;10.98;6.35;;;;;7.90;98739.00;;;;5055374;28;20116;-61
2024/02/06 08:42:20;;;;;;;11.68;6.25;;;;;7.90;98739.00;;;;5053835;28;20045;-61
2024/02/06 08:44:47;;;;;;;8.95;5.95;;;;;7.90;98742.00;;;;5054713;28;20495;-60
2024/02/06 08:47:13;;;;;;;9.23;6.00;;;;;7.90;98745.00;;;;5055232;28;20557;-60
2024/02/06 08:49:40;;;;;;;9.90;6.03;;;;;7.90;98731.00;;;;5055305;28;20051;-58
2024/02/06 08:52:06;;;;;;;8.18;5.75;;;;;7.90;98727.00;;;;5055042;28;20037;-61
2024/02/06 08:54:33;;;;;;;8.10;5.53;;;;;7.80;98724.00;;;;5054538;28;20052;-60
2024/02/06 08:56:59;;;;;;;7.18;5.60;;;;;7.80;98733.00;;;;5053439;28;20053;-60
2024/02/06 08:59:26;;;;;;;9.93;5.07;;;;;7.90;98727.00;;;;5055099;28;20088;-62
2024/02/06 09:01:53;;;;;;;8.95;5.43;;;;;7.80;98733.00;;;;5054886;28;20122;-61
2024/02/06 09:04:19;;;;;;;7.90;5.00;;;;;7.80;98728.00;;;;5054410;28;20512;-62
2024/02/06 09:06:46;;;;;;;11.07;5.30;;;;;7.80;98730.00;;;;5055154;28;20504;-62
2024/02/06 09:09:13;;;;;;;11.77;5.00;;;;;7.90;98716.00;;;;5054973;28;20041;-62
2024/02/06 09:11:40;;;;;;;9.75;5.40;;;;;7.90;98714.00;;;;5054772;28;20445;-62
2024/02/06 09:14:07;;;;;;;8.60;4.47;;;;;8.00;98710.00;;;;5054040;28;20099;-61
2024/02/06 09:16:33;;;;;;;9.00;4.88;;;;;7.90;98706.00;;;;5053403;28;20045;-62
2024/02/06 09:19:00;;;;;;;5.55;4.18;;;;;7.90;98711.00;;;;5054164;28;20120;-61
2024/02/06 09:21:28;;;;;;;7.22;4.63;;;;;7.90;98717.00;;;;5054146;28;20482;-61
2024/02/06 09:23:54;;;;;;;6.38;3.92;;;;;8.00;98705.00;;;;5053967;28;20064;-61
2024/02/06 09:26:21;;;;;;;7.00;4.28;;;;;8.00;98713.00;;;;5054680;28;20060;-61
2024/02/06 09:28:48;;;;;;;5.07;4.00;;;;;8.10;98715.00;;;;5054207;28;20122;-61
2024/02/06 09:31:15;;;;;;;6.57;3.85;;;;;8.10;98718.00;;;;5054406;28;20139;-61
2024/02/06 09:33:43;;;;;;;6.60;5.30;;;;;8.20;98714.00;;;;5053831;28;20117;-61
2024/02/06 09:36:09;;;;;;;8.23;3.45;;;;;8.20;98715.00;;;;5054304;28;20037;-61
2024/02/06 09:38:37;;;;;;;6.85;4.10;;;;;8.20;98721.00;;;;5054295;28;20136;-61
2024/02/06 09:41:05;;;;;;;9.70;4.03;;;;;8.10;98715.00;;;;5054379;28;20041;-62
2024/02/06 09:43:36;;;;;;;5.97;3.55;;;;;8.10;98719.00;;;;5053334;28;20543;-62
2024/02/06 09:46:04;;;;;;;6.22;3.92;;;;;8.20;98716.00;;;;5054185;28;20559;-62
2024/02/06 09:48:30;;;;;;;5.30;3.65;;;;;8.10;98734.00;;;;5054045;28;20044;-61
2024/02/06 09:50:58;;;;;;;7.07;4.38;;;;;8.10;98734.00;;;;5053910;28;20048;-62
2024/02/06 09:53:28;;;;;;;6.78;3.47;;;;;8.10;98735.00;;;;5053434;28;20041;-61
2024/02/06 09:55:55;;;;;;;5.82;3.72;;;;;8.20;98740.00;;;;5053980;28;20490;-62
2024/02/06 09:58:23;;;;;;;6.82;3.90;;;;;8.10;98740.00;;;;5053830;28;20052;-59
2024/02/06 10:00:52;;;;;;;8.57;3.75;;;;;8.10;98730.00;;;;5053788;28;20060;-62
2024/02/06 10:03:25;;;;;;;7.03;4.05;;;;;8.10;98735.00;;;;5052638;28;20727;-60
2024/02/06 10:05:53;;;;;;;5.40;3.60;;;;;8.10;98729.00;;;;5053868;28;20116;-62
2024/02/06 10:08:20;;;;;;;6.78;3.20;;;;;8.10;98722.00;;;;5054062;28;20041;-61
2024/02/06 10:10:48;;;;;;;8.50;3.80;;;;;8.20;98721.00;;;;5053451;28;20457;-63
2024/02/06 10:13:15;;;;;;;10.50;4.25;;;;;8.20;98737.00;;;;5052405;28;20151;-61
2024/02/06 10:15:42;;;;;;;6.70;4.10;;;;;8.20;98736.00;;;;5052897;28;20048;-62
2024/02/06 10:18:08;;;;;;;8.95;4.10;;;;;8.20;98723.00;;;;5053950;28;20040;-59
2024/02/06 10:20:42;;;;;;;13.38;5.20;;;;;8.20;98733.00;;;;5053236;28;20045;-63
2024/02/06 10:23:22;;;;;;;6.40;3.85;;;;;8.20;98734.00;;;;5052230;28;20049;-62
2024/02/06 10:25:50;;;;;;;10.40;4.75;;;;;8.20;98729.00;;;;5053233;28;20905;-62
2024/02/06 10:28:24;;;;;;;7.45;3.95;;;;;8.30;98730.00;;;;5053472;28;20091;-62
2024/02/06 10:30:55;;;;;;;7.22;3.83;;;;;8.30;98731.00;;;;5053118;28;20045;-62
2024/02/06 10:33:22;;;;;;;7.00;3.67;;;;;8.40;98737.00;;;;5052849;28;20049;-66
2024/02/06 10:36:00;;;;;;;8.10;4.07;;;;;8.50;98724.00;;;;5053290;28;20425;-61
2024/02/06 10:38:28;;;;;;;6.00;3.88;;;;;8.50;98737.00;;;;5051966;28;20127;-62
2024/02/06 10:40:55;;;;;;;5.57;4.30;;;;;8.50;98732.00;;;;5053075;28;20053;-62
2024/02/06 10:43:38;;;;;;;5.93;3.70;;;;;8.50;98731.00;;;;5052599;28;20555;-63
2024/02/06 10:46:19;;;;;;;5.97;4.07;;;;;8.50;98733.00;;;;5053067;28;20059;-62
2024/02/06 10:48:47;;;;;;;7.18;3.85;;;;;8.50;98730.00;;;;5053048;28;20041;-61
2024/02/06 10:51:22;;;;;;;8.48;4.00;;;;;8.60;98728.00;;;;5051598;28;20096;-61
2024/02/06 10:53:56;;;;;;;7.65;3.97;;;;;8.60;98727.00;;;;5052361;28;20452;-62
2024/02/06 10:56:25;;;;;;;7.47;3.90;;;;;8.60;98728.00;;;;5052810;28;20041;-63
2024/02/06 10:58:58;;;;;;;7.22;3.85;;;;;8.60;98723.00;;;;5052954;28;20041;-61
2024/02/06 11:01:34;;;;;;;9.33;4.67;;;;;8.60;98724.00;;;;5051612;28;20045;-62
2024/02/06 11:04:05;;;;;;;6.50;4.30;;;;;8.60;98732.00;;;;5052120;28;20055;-63
2024/02/06 11:06:42;;;;;;;6.65;3.85;;;;;8.70;98735.00;;;;5052770;28;20041;-63
2024/02/06 11:09:11;;;;;;;4.85;3.90;;;;;8.60;98725.00;;;;5052814;28;20049;-63
2024/02/06 11:11:39;;;;;;;7.50;4.50;;;;;8.60;98709.00;;;;5051160;28;20064;-63
2024/02/06 11:14:08;;;;;;;5.65;4.20;;;;;8.60;98715.00;;;;5052042;28;20041;-63
2024/02/06 11:16:44;;;;;;;8.68;4.95;;;;;8.70;98715.00;;;;5052471;28;20152;-64
2024/02/06 11:19:16;;;;;;;11.85;7.28;;;;;8.80;98714.00;;;;5052578;28;20055;-61
2024/02/06 11:21:46;;;;;;;8.88;4.28;;;;;8.80;98710.00;;;;5052528;28;20417;-61
2024/02/06 11:24:13;;;;;;;10.55;3.80;;;;;8.70;98709.00;;;;5051783;28;20048;-61
2024/02/06 11:26:41;;;;;;;5.47;3.80;;;;;8.80;98705.00;;;;5052320;28;20053;-62
2024/02/06 11:29:08;;;;;;;9.13;4.55;;;;;8.80;98707.00;;;;5051279;28;20125;-61
2024/02/06 11:31:36;;;;;;;7.55;4.07;;;;;8.80;98689.00;;;;5052302;28;20052;-62
2024/02/06 11:34:19;;;;;;;8.40;3.80;;;;;8.80;98697.00;;;;5051608;28;20087;-62
2024/02/06 11:36:47;;;;;;;8.77;3.90;;;;;8.80;98701.00;;;;5052201;28;20078;-62
2024/02/06 11:39:13;;;;;;;5.57;3.97;;;;;8.70;98697.00;;;;5052132;28;20047;-62
2024/02/06 11:41:41;;;;;;;6.60;3.92;;;;;8.80;98706.00;;;;5052131;28;20069;-62
2024/02/06 11:44:10;;;;;;;7.03;4.00;;;;;8.80;98697.00;;;;5050932;28;20076;-62
2024/02/06 11:46:56;;;;;;;10.40;5.45;;;;;8.80;98694.00;;;;5052098;28;20548;-62
2024/02/06 11:49:23;;;;;;;6.95;3.58;;;;;8.70;98685.00;;;;5052021;28;20048;-61
2024/02/06 11:51:55;;;;;;;9.02;4.55;;;;;8.80;98681.00;;;;5051852;28;20508;-61
2024/02/06 11:54:22;;;;;;;10.55;4.97;;;;;8.80;98684.00;;;;5050217;28;20473;-59
2024/02/06 11:56:49;;;;;;;7.95;4.88;;;;;8.80;98662.00;;;;5051916;28;20075;-60
2024/02/06 11:59:17;;;;;;;8.07;4.25;;;;;8.80;98667.00;;;;5052023;28;20445;-60
2024/02/06 12:01:43;;;;;;;14.30;6.75;;;;;8.80;98663.00;;;;5051823;28;20063;-60
2024/02/06 12:04:11;;;;;;;9.75;4.88;;;;;8.80;98655.00;;;;5051634;28;20242;-60
2024/02/06 12:06:38;;;;;;;10.77;4.82;;;;;8.80;98644.00;;;;5051667;28;20067;-60
2024/02/06 12:09:07;;;;;;;7.55;4.85;;;;;8.80;98646.00;;;;5052891;28;20041;-60
2024/02/06 12:11:36;;;;;;;7.75;4.50;;;;;8.80;98634.00;;;;5052629;28;20048;-60
2024/02/06 12:14:03;;;;;;;6.65;4.28;;;;;8.90;98634.00;;;;5058899;28;20049;-60
2024/02/06 12:16:31;;;;;;;6.45;4.63;;;;;8.90;98640.00;;;;5057115;28;20057;-60
2024/02/06 12:18:58;;;;;;;6.35;4.65;;;;;9.00;98639.00;;;;5057564;28;20041;-61
2024/02/06 12:21:25;;;;;;;12.15;5.05;;;;;9.00;98632.00;;;;5057600;28;20555;-61